メインページ
METAR-TAF:

METAR-TAF

空港 :

プルコヴォ空港

サンクトペテルブルク, ロシア

緯度: 59-58N, 経度: 030-18E, 海抜: 4m

現時点の気象観測

当レポートは46分前の05:30(UTC)に作成
南西の風 10kt、最大19ktの突風を伴う、南東から西の間で変化する
気温 9°C
湿度 81%
気圧 1007 hPa
視程10km以上
高度1300ftの千切れ雲あり

METAR: ULLI 220530Z 22005G10MPS 130V280 9999 BKN013 09/06 Q1007 R28L/090060 NOSIG

時間: 09:16 (06:16 UTC)

予報

当レポートは1時間19分前の04:57(UTC)に作成
予報は22日の 06時(UTC)から 23日の 06時(UTC)まで有効
南西の風 14kt、最大27ktの突風を伴う
視程10km以上
高度1300ftの千切れ雲あり
22日の 06時(UTC)から 22日の 11時(UTC)まで一時的に
西/南西の風 19kt、最大31ktの突風を伴う
視程: 3100m
高度500ftの千切れ雲あり
高度1500ftの千切れ雲あり, 積乱雲.
弱いにわか雨
22日の 11時(UTC)から 22日の 15時(UTC)まで一時的に
西の風 21kt、最大35ktの突風を伴う
視程: 3100m
高度1100ftの千切れ雲あり
高度1500ftの千切れ雲あり, 積乱雲.
弱いにわか雨
22日の 15時(UTC)から 22日の 24時(UTC)まで一時的に
西の風 12kt、最大23ktの突風を伴う
視程: 3100m
高度1100ftの千切れ雲あり
高度1500ftの千切れ雲あり, 積乱雲.
弱いにわか雨
23日の 00時(UTC)から 23日の 02時(UTC)まで徐々に
西の風 10kt、最大19ktの突風を伴う
23日の 02時(UTC)から 23日の 06時(UTC)まで一時的に
視程: 4000m
高度1100ftの千切れ雲あり
高度1500ftの千切れ雲あり, 積乱雲.
弱いにわか雨

TAF: ULLI 220457Z 2206/2306 22007G14MPS 9999 BKN013 TEMPO 2206/2211 24010G16MPS 3100 -SHRA BKN005 BKN015CB TEMPO 2211/2215 26011G18MPS 3100 -SHRA BKN011 BKN015CB TEMPO 2215/2224 27006G12MPS 3100 -SHRA BKN011 BKN015CB BECMG 2300/2302 26005G10MPS TEMPO 2302/2306 4000 -SHRA BKN011 BKN015CB

4,000以上の空港の気象観測と天気予報(METAR報とTAF報)

利用可能な観測所は地図上に黄色い丸と赤い丸で示す。

丸の上にカーソルを重ねると観測所名を参照できる。

次にクリックすると気象観測と天気予報を参照できる。

マップの切り替え:黒色「×」印の緑ボタンをクリックして拡大、「-」印の緑ボタンをクリックして縮小、緑色の三角印をクリックして隣りの地図に切り替え


METAR-TAF: